Pagrindinis puslapis
METAR-TAF:

METAR-TAF

Oro uostai :

Hua Hin, Tailandas

platuma: 12-35N, ilguma: 099-57E, Aukštis: 5 m

Dabartinis oras

Ataskaita buvo paskelbta 3 valandos ir 26 minutes, ne 10:00 UTC
Vėjas 6 kt iš Šiaurės/Šiaurės Rytų, svyruoja nuo Šiaurės/Šiaurės Vakarų ir Šiaurės Rytų
Temperatūra 29°C
Drėgmė 66%
Slėgis 1010 hPa
Matomumas: 9000 m
Mažai debesys ne aukštis 2800 ft

METAR: VTPH 151000Z 02006KT 340V040 9000 FEW028 29/22 Q1010 NOSIG

Laikas: 20:26 (13:26 UTC)

Prognozė

Ataskaita buvo paskelbta 2 valandos ir 26 minutes, ne 11:00 UTC
Prognozė galioja nuo 15 metu 12 UTC su 16 metu 12 UTC
Vėjas kt iš Šiaurės
Matomumas: 8000 m
Mažai debesys ne aukštis 3000 ft
Tapsmas
nuo 16 metu 02 UTC su 16 metu 04 UTC
Vėjas 8 kt iš Šiaurės/Šiaurės Rytų
Matomumas 10 km arba daugiau

TAF: VTPH 151100Z 1512/1612 00000KT 8000 FEW030 BECMG 1602/1604 03008KT 9999

Orai ataskaitas ir orų prognozės (METAR, TAF).

turimą stotys yra geltonos ir raudonos taškus žemėlapyje.

Perkelti pele per norėdami pamatyti stoties vardą.

Tada spustelėkite, norėdami matyti oro stebėjimo ir prognozės.

Norėdami pakeisti žemėlapį: spustelėkite ant žalios mygtukų su juodo kryžiaus žemyn,; žalią mygtuką su brūkšneliu, jei norite nutolinti; arba žalių rodyklių gretimoms žemėlapius.


METAR-TAF: